Time,TemperatureF,DewpointF,PressureIn,WindDirection,WindDirectionDegrees,WindSpeedMPH,WindSpeedGustMPH,Humidity,HourlyPrecipIn,Conditions,Clouds,dailyrainin,SolarRadiationWatts/m^2,SoftwareType,DateUTC
2013-09-01 00:02:00,65.0,43.0,-100.00,NNE,13,1.0,6.0,45,0.00,,,0.00,0.000000,,2013-09-01 07:02:00,
2013-09-01 00:12:00,65.0,43.0,-100.00,NNE,13,1.0,6.0,45,0.00,,,0.00,0.000000,,2013-09-01 07:12:00,
2013-09-01 00:42:00,63.0,43.0,-100.00,ESE,119,2.0,5.0,48,0.00,,,0.00,0.000000,,2013-09-01 07:42:00,
2013-09-01 00:52:00,63.0,43.0,-100.00,ESE,119,2.0,5.0,48,0.00,,,0.00,0.000000,,2013-09-01 07:52:00,
2013-09-01 01:02:00,63.0,43.0,-100.00,ESE,119,2.0,5.0,48,0.00,,,0.00,0.000000,,2013-09-01 08:02:00,
2013-09-01 01:11:00,63.0,43.0,-100.00,ESE,119,2.0,5.0,48,0.00,,,0.00,0.000000,,2013-09-01 08:11:00,
2013-09-01 01:43:00,63.0,44.0,-100.00,NNE,18,2.0,5.0,49,0.00,,,0.00,0.000000,,2013-09-01 08:43:00,
2013-09-01 01:52:00,63.0,44.0,-100.00,NNE,18,2.0,5.0,49,0.00,,,0.00,0.000000,,2013-09-01 08:52:00,
2013-09-01 02:02:00,63.0,44.0,-100.00,NNE,18,2.0,5.0,49,0.00,,,0.00,0.000000,,2013-09-01 09:02:00,
2013-09-01 02:11:00,63.0,44.0,-100.00,NNE,18,2.0,5.0,49,0.00,,,0.00,0.000000,,2013-09-01 09:11:00,
2013-09-01 02:43:00,63.0,44.0,-100.00,WNW,294,3.0,6.0,49,0.00,,,0.00,0.000000,,2013-09-01 09:43:00,
2013-09-01 02:53:00,63.0,44.0,-100.00,WNW,294,3.0,6.0,49,0.00,,,0.00,0.000000,,2013-09-01 09:53:00,
2013-09-01 03:03:00,63.0,44.0,-100.00,WNW,294,3.0,6.0,49,0.00,,,0.00,0.000000,,2013-09-01 10:03:00,
2013-09-01 03:12:00,63.0,44.0,-100.00,WNW,294,3.0,6.0,49,0.00,,,0.00,0.000000,,2013-09-01 10:12:00,
2013-09-01 03:42:00,62.0,44.0,-100.00,WSW,256,2.0,5.0,51,0.00,,,0.00,0.000000,,2013-09-01 10:42:00,
2013-09-01 03:53:00,62.0,44.0,-100.00,WSW,256,2.0,5.0,51,0.00,,,0.00,0.000000,,2013-09-01 10:53:00,
2013-09-01 04:02:00,62.0,44.0,-100.00,WSW,256,2.0,5.0,51,0.00,,,0.00,0.000000,,2013-09-01 11:02:00,
2013-09-01 04:12:00,62.0,44.0,-100.00,WSW,256,2.0,5.0,51,0.00,,,0.00,0.000000,,2013-09-01 11:12:00,
2013-09-01 04:42:00,60.0,44.0,-100.00,SE,142,5.0,6.0,56,0.00,,,0.00,0.000000,,2013-09-01 11:42:00,
2013-09-01 04:52:00,60.0,44.0,-100.00,SE,142,5.0,6.0,56,0.00,,,0.00,0.000000,,2013-09-01 11:52:00,
2013-09-01 05:01:00,60.0,44.0,-100.00,SE,142,5.0,6.0,56,0.00,,,0.00,0.000000,,2013-09-01 12:01:00,
2013-09-01 05:12:00,60.0,44.0,-100.00,SE,142,5.0,6.0,56,0.00,,,0.00,0.000000,,2013-09-01 12:12:00,
2013-09-01 05:42:00,62.0,45.0,-100.00,SSE,165,4.0,8.0,54,0.00,,,0.00,0.000000,,2013-09-01 12:42:00,
2013-09-01 05:52:00,62.0,45.0,-100.00,SSE,165,4.0,8.0,54,0.00,,,0.00,0.000000,,2013-09-01 12:52:00,
2013-09-01 06:01:00,62.0,45.0,-100.00,SSE,165,4.0,8.0,54,0.00,,,0.00,0.000000,,2013-09-01 13:01:00,
2013-09-01 06:11:00,62.0,45.0,-100.00,SSE,165,4.0,8.0,54,0.00,,,0.00,0.000000,,2013-09-01 13:11:00,
2013-09-01 06:42:00,63.0,45.0,-100.00,SSW,209,7.0,9.0,52,0.00,,,0.00,0.000000,,2013-09-01 13:42:00,
2013-09-01 07:11:00,63.0,45.0,-100.00,SSW,209,7.0,9.0,52,0.00,,,0.00,0.000000,,2013-09-01 14:11:00,
2013-09-01 08:11:00,63.0,46.0,-100.00,South,173,4.0,11.0,53,-99.99,,,0.00,15.000000,,2013-09-01 15:11:00,
2013-09-01 08:14:00,68.0,48.0,-100.00,SSE,148,3.0,15.0,48,0.00,,,0.00,209.000000,,2013-09-01 15:14:00,
2013-09-01 09:43:00,72.0,47.0,-100.00,SE,130,6.0,11.0,41,0.00,,,0.00,429.000000,,2013-09-01 16:43:00,
2013-09-01 09:53:00,72.0,47.0,-100.00,SE,130,6.0,11.0,41,0.00,,,0.00,429.000000,,2013-09-01 16:53:00,
2013-09-01 10:03:00,72.0,47.0,-100.00,SE,130,6.0,11.0,41,0.00,,,0.00,429.000000,,2013-09-01 17:03:00,
2013-09-01 10:12:00,72.0,47.0,-100.00,SE,130,6.0,11.0,41,0.00,,,0.00,429.000000,,2013-09-01 17:12:00,
2013-09-01 10:42:00,77.0,46.0,-100.00,SSE,158,5.0,12.0,34,0.00,,,0.00,638.000000,,2013-09-01 17:42:00,
2013-09-01 10:52:00,77.0,46.0,-100.00,SSE,158,5.0,12.0,34,0.00,,,0.00,638.000000,,2013-09-01 17:52:00,
2013-09-01 11:02:00,77.0,46.0,-100.00,SSE,158,5.0,12.0,34,0.00,,,0.00,638.000000,,2013-09-01 18:02:00,
2013-09-01 11:12:00,77.0,46.0,-100.00,SSE,158,5.0,12.0,34,0.00,,,0.00,638.000000,,2013-09-01 18:12:00,
2013-09-01 11:42:00,80.0,43.0,-100.00,South,173,7.0,16.0,27,0.00,,,0.00,807.000000,,2013-09-01 18:42:00,
2013-09-01 11:52:00,80.0,43.0,-100.00,South,173,7.0,16.0,27,0.00,,,0.00,807.000000,,2013-09-01 18:52:00,
2013-09-01 12:02:00,80.0,43.0,-100.00,South,173,7.0,16.0,27,0.00,,,0.00,807.000000,,2013-09-01 19:02:00,
2013-09-01 12:12:00,80.0,43.0,-100.00,South,173,7.0,16.0,27,0.00,,,0.00,807.000000,,2013-09-01 19:12:00,
2013-09-01 12:42:00,83.0,36.0,-100.00,SSW,203,9.0,15.0,19,0.00,,,0.00,920.000000,,2013-09-01 19:42:00,
2013-09-01 12:52:00,83.0,36.0,-100.00,SSW,203,9.0,15.0,19,0.00,,,0.00,920.000000,,2013-09-01 19:52:00,
2013-09-01 13:02:00,83.0,36.0,-100.00,SSW,203,9.0,15.0,19,0.00,,,0.00,920.000000,,2013-09-01 20:02:00,
2013-09-01 13:12:00,83.0,36.0,-100.00,SSW,203,9.0,15.0,19,0.00,,,0.00,920.000000,,2013-09-01 20:12:00,
2013-09-01 13:42:00,85.0,30.0,-100.00,South,180,8.0,16.0,14,0.00,,,0.00,966.000000,,2013-09-01 20:42:00,
2013-09-01 13:52:00,85.0,30.0,-100.00,South,180,8.0,16.0,14,0.00,,,0.00,966.000000,,2013-09-01 20:52:00,
2013-09-01 14:02:00,85.0,30.0,-100.00,South,180,8.0,16.0,14,0.00,,,0.00,966.000000,,2013-09-01 21:02:00,
2013-09-01 14:11:00,85.0,30.0,-100.00,South,180,8.0,16.0,14,0.00,,,0.00,966.000000,,2013-09-01 21:11:00,
2013-09-01 14:14:00,88.0,31.0,-100.00,North,4,5.0,17.0,13,0.00,,,0.00,934.000000,,2013-09-01 21:14:00,
2013-09-01 14:44:00,88.0,31.0,-100.00,North,4,5.0,17.0,13,0.00,,,0.00,934.000000,,2013-09-01 21:44:00,
2013-09-01 14:55:00,88.0,31.0,-100.00,North,4,5.0,17.0,13,0.00,,,0.00,934.000000,,2013-09-01 21:55:00,
2013-09-01 15:04:00,88.0,31.0,-100.00,North,4,5.0,17.0,13,0.00,,,0.00,934.000000,,2013-09-01 22:04:00,
2013-09-01 15:43:00,89.0,25.0,-100.00,SW,215,7.0,14.0,10,0.00,,,0.00,881.000000,,2013-09-01 22:43:00,
2013-09-01 15:53:00,89.0,25.0,-100.00,SW,215,7.0,14.0,10,0.00,,,0.00,881.000000,,2013-09-01 22:53:00,
2013-09-01 16:03:00,89.0,25.0,-100.00,SW,215,7.0,14.0,10,0.00,,,0.00,881.000000,,2013-09-01 23:03:00,
2013-09-01 16:12:00,89.0,25.0,-100.00,SW,215,7.0,14.0,10,0.00,,,0.00,881.000000,,2013-09-01 23:12:00,
2013-09-01 16:42:00,90.0,28.0,-100.00,SSW,211,6.0,16.0,11,0.00,,,0.00,732.000000,,2013-09-01 23:42:00,
2013-09-01 16:53:00,90.0,28.0,-100.00,SSW,211,6.0,16.0,11,0.00,,,0.00,732.000000,,2013-09-01 23:53:00,
2013-09-01 17:02:00,90.0,28.0,-100.00,SSW,211,6.0,16.0,11,0.00,,,0.00,732.000000,,2013-09-02 00:02:00,
2013-09-01 17:11:00,90.0,28.0,-100.00,SSW,211,6.0,16.0,11,0.00,,,0.00,732.000000,,2013-09-02 00:11:00,
2013-09-01 17:42:00,87.0,37.0,-100.00,NNW,344,7.0,20.0,17,0.00,,,0.00,577.000000,,2013-09-02 00:42:00,
2013-09-01 17:52:00,87.0,37.0,-100.00,NNW,344,7.0,20.0,17,0.00,,,0.00,577.000000,,2013-09-02 00:52:00,
2013-09-01 18:02:00,87.0,37.0,-100.00,NNW,344,7.0,20.0,17,0.00,,,0.00,577.000000,,2013-09-02 01:02:00,
2013-09-01 18:12:00,87.0,37.0,-100.00,NNW,344,7.0,20.0,17,0.00,,,0.00,577.000000,,2013-09-02 01:12:00,
2013-09-01 18:42:00,84.0,34.0,-100.00,NW,309,11.0,18.0,17,0.00,,,0.00,368.000000,,2013-09-02 01:42:00,
2013-09-01 18:52:00,84.0,34.0,-100.00,NW,309,11.0,18.0,17,0.00,,,0.00,368.000000,,2013-09-02 01:52:00,
2013-09-01 19:02:00,84.0,34.0,-100.00,NW,309,11.0,18.0,17,0.00,,,0.00,368.000000,,2013-09-02 02:02:00,
2013-09-01 19:12:00,84.0,34.0,-100.00,NW,309,11.0,18.0,17,0.00,,,0.00,368.000000,,2013-09-02 02:12:00,
2013-09-01 19:42:00,80.0,33.0,-100.00,WNW,300,12.0,24.0,18,0.00,,,-99.99,54.000000,,2013-09-02 02:42:00,
2013-09-01 19:52:00,80.0,33.0,-100.00,WNW,300,12.0,24.0,18,0.00,,,-99.99,54.000000,,2013-09-02 02:52:00,
2013-09-01 20:02:00,80.0,33.0,-100.00,WNW,300,12.0,24.0,18,0.00,,,-99.99,54.000000,,2013-09-02 03:02:00,
2013-09-01 20:11:00,80.0,33.0,-100.00,WNW,300,12.0,24.0,18,0.00,,,-99.99,54.000000,,2013-09-02 03:11:00,
2013-09-01 20:14:00,73.0,43.0,-100.00,NW,315,18.0,26.0,34,0.00,,,0.00,7.000000,,2013-09-02 03:14:00,
2013-09-01 20:44:00,73.0,43.0,-100.00,NW,315,18.0,26.0,34,0.00,,,0.00,7.000000,,2013-09-02 03:44:00,
2013-09-01 20:56:00,73.0,43.0,-100.00,NW,315,18.0,26.0,34,0.00,,,0.00,7.000000,,2013-09-02 03:56:00,
2013-09-01 21:04:00,73.0,43.0,-100.00,NW,315,18.0,26.0,34,0.00,,,0.00,7.000000,,2013-09-02 04:04:00,
2013-09-01 21:44:00,69.0,44.0,-100.00,NW,312,10.0,22.0,41,0.00,,,0.00,0.000000,,2013-09-02 04:44:00,
2013-09-01 21:54:00,69.0,44.0,-100.00,NW,312,10.0,22.0,41,0.00,,,0.00,0.000000,,2013-09-02 04:54:00,
2013-09-01 22:03:00,69.0,44.0,-100.00,NW,312,10.0,22.0,41,0.00,,,0.00,0.000000,,2013-09-02 05:03:00,
2013-09-01 22:12:00,69.0,44.0,-100.00,NW,312,10.0,22.0,41,0.00,,,0.00,0.000000,,2013-09-02 05:12:00,
2013-09-01 22:44:00,67.0,45.0,-100.00,NW,310,10.0,14.0,45,0.00,,,0.00,0.000000,,2013-09-02 05:44:00,
2013-09-01 22:52:00,67.0,45.0,-100.00,NW,310,10.0,14.0,45,0.00,,,0.00,0.000000,,2013-09-02 05:52:00,
2013-09-01 23:03:00,67.0,45.0,-100.00,NW,310,10.0,14.0,45,0.00,,,0.00,0.000000,,2013-09-02 06:03:00,
2013-09-01 23:12:00,67.0,45.0,-100.00,NW,310,10.0,14.0,45,0.00,,,0.00,0.000000,,2013-09-02 06:12:00,
2013-09-01 23:43:00,65.0,48.0,-100.00,North,2,7.0,14.0,54,0.00,,,0.00,0.000000,,2013-09-02 06:43:00,
2013-09-01 23:52:00,65.0,48.0,-100.00,North,2,7.0,14.0,54,0.00,,,0.00,0.000000,,2013-09-02 06:52:00,